sensor_id;sensor_type;location;lat;lon;timestamp;pressure;altitude;pressure_sealevel;temperature;humidity
58955;BME280;45815;52.334;5.024;2023-03-20T00:00:34;101934.41;;;8.47;100.00
58955;BME280;45815;52.334;5.024;2023-03-20T00:03:00;101943.50;;;8.55;100.00
58955;BME280;45815;52.334;5.024;2023-03-20T00:05:27;101926.72;;;8.50;100.00
58955;BME280;45815;52.334;5.024;2023-03-20T00:07:54;101941.84;;;8.57;100.00
58955;BME280;45815;52.334;5.024;2023-03-20T00:10:25;101942.75;;;8.58;100.00
58955;BME280;45815;52.334;5.024;2023-03-20T00:12:52;101938.41;;;8.58;100.00
58955;BME280;45815;52.334;5.024;2023-03-20T00:15:31;101935.78;;;8.58;100.00
58955;BME280;45815;52.334;5.024;2023-03-20T00:17:58;101931.50;;;8.60;100.00
58955;BME280;45815;52.334;5.024;2023-03-20T00:20:24;101918.31;;;8.57;100.00
58955;BME280;45815;52.334;5.024;2023-03-20T00:22:50;101916.66;;;8.59;100.00
58955;BME280;45815;52.334;5.024;2023-03-20T00:25:19;101931.59;;;8.62;100.00
58955;BME280;45815;52.334;5.024;2023-03-20T00:27:46;101920.41;;;8.66;100.00
58955;BME280;45815;52.334;5.024;2023-03-20T00:30:28;101926.41;;;8.63;100.00
58955;BME280;45815;52.334;5.024;2023-03-20T00:32:56;101937.16;;;8.70;100.00
58955;BME280;45815;52.334;5.024;2023-03-20T00:35:28;101928.06;;;8.61;100.00
58955;BME280;45815;52.334;5.024;2023-03-20T00:37:57;101947.63;;;8.70;100.00
58955;BME280;45815;52.334;5.024;2023-03-20T00:40:28;101956.31;;;8.69;100.00
58955;BME280;45815;52.334;5.024;2023-03-20T00:43:03;101968.44;;;8.66;100.00
58955;BME280;45815;52.334;5.024;2023-03-20T00:45:30;101968.44;;;8.66;100.00
58955;BME280;45815;52.334;5.024;2023-03-20T00:47:58;101970.09;;;8.64;100.00
58955;BME280;45815;52.334;5.024;2023-03-20T00:50:26;101968.28;;;8.63;100.00
58955;BME280;45815;52.334;5.024;2023-03-20T00:52:54;101972.50;;;8.60;100.00
58955;BME280;45815;52.334;5.024;2023-03-20T00:55:22;101949.84;;;8.60;100.00
58955;BME280;45815;52.334;5.024;2023-03-20T00:57:59;101939.06;;;8.54;100.00
58955;BME280;45815;52.334;5.024;2023-03-20T01:00:41;101947.91;;;8.56;100.00
58955;BME280;45815;52.334;5.024;2023-03-20T01:03:18;101962.59;;;8.53;100.00
58955;BME280;45815;52.334;5.024;2023-03-20T01:05:47;101966.22;;;8.56;100.00
58955;BME280;45815;52.334;5.024;2023-03-20T01:08:21;101967.88;;;8.54;100.00
58955;BME280;45815;52.334;5.024;2023-03-20T01:10:54;101954.44;;;8.47;100.00
58955;BME280;45815;52.334;5.024;2023-03-20T01:13:26;101955.50;;;8.50;100.00
58955;BME280;45815;52.334;5.024;2023-03-20T01:15:52;101947.69;;;8.52;100.00
58955;BME280;45815;52.334;5.024;2023-03-20T01:18:20;101966.56;;;8.44;100.00
58955;BME280;45815;52.334;5.024;2023-03-20T01:20:46;101968.28;;;8.44;100.00
58955;BME280;45815;52.334;5.024;2023-03-20T01:23:12;101966.50;;;8.43;100.00
58955;BME280;45815;52.334;5.024;2023-03-20T01:25:39;101961.28;;;8.43;100.00
58955;BME280;45815;52.334;5.024;2023-03-20T01:28:22;101958.25;;;8.35;100.00
58955;BME280;45815;52.334;5.024;2023-03-20T01:30:48;101956.56;;;8.36;100.00
58955;BME280;45815;52.334;5.024;2023-03-20T01:33:21;101953.09;;;8.37;100.00
58955;BME280;45815;52.334;5.024;2023-03-20T01:35:51;101954.44;;;8.29;100.00
58955;BME280;45815;52.334;5.024;2023-03-20T01:38:20;101963.00;;;8.24;100.00
58955;BME280;45815;52.334;5.024;2023-03-20T01:41:00;101970.47;;;8.17;100.00
58955;BME280;45815;52.334;5.024;2023-03-20T01:43:30;101968.91;;;8.20;100.00
58955;BME280;45815;52.334;5.024;2023-03-20T01:46:02;101972.28;;;8.18;100.00
58955;BME280;45815;52.334;5.024;2023-03-20T01:48:57;101964.09;;;8.10;100.00
58955;BME280;45815;52.334;5.024;2023-03-20T01:51:29;101973.91;;;8.16;100.00
58955;BME280;45815;52.334;5.024;2023-03-20T01:54:07;101967.50;;;8.09;100.00
58955;BME280;45815;52.334;5.024;2023-03-20T01:56:46;101963.16;;;8.10;100.00
58955;BME280;45815;52.334;5.024;2023-03-20T01:59:22;101960.50;;;8.08;100.00
58955;BME280;45815;52.334;5.024;2023-03-20T02:01:49;101951.81;;;8.09;100.00
58955;BME280;45815;52.334;5.024;2023-03-20T02:04:23;101935.56;;;7.97;100.00
58955;BME280;45815;52.334;5.024;2023-03-20T02:06:55;101935.84;;;8.03;100.00
58955;BME280;45815;52.334;5.024;2023-03-20T02:09:33;101935.69;;;8.00;100.00
58955;BME280;45815;52.334;5.024;2023-03-20T02:12:02;101938.38;;;8.01;100.00
58955;BME280;45815;52.334;5.024;2023-03-20T02:14:28;101929.78;;;8.04;100.00
58955;BME280;45815;52.334;5.024;2023-03-20T02:17:07;101939.28;;;8.02;100.00
58955;BME280;45815;52.334;5.024;2023-03-20T02:22:42;101934.81;;;7.99;100.00
58955;BME280;45815;52.334;5.024;2023-03-20T02:25:40;101920.00;;;8.00;100.00
58955;BME280;45815;52.334;5.024;2023-03-20T02:39:51;101909.28;;;7.94;100.00
58955;BME280;45815;52.334;5.024;2023-03-20T02:51:47;101879.88;;;7.80;100.00
58955;BME280;45815;52.334;5.024;2023-03-20T02:57:11;101885.09;;;7.80;100.00
58955;BME280;45815;52.334;5.024;2023-03-20T02:59:58;101878.56;;;7.70;100.00
58955;BME280;45815;52.334;5.024;2023-03-20T03:05:15;101897.28;;;7.61;100.00
58955;BME280;45815;52.334;5.024;2023-03-20T03:07:44;101899.00;;;7.61;100.00
58955;BME280;45815;52.334;5.024;2023-03-20T03:10:25;101892.41;;;7.51;100.00
58955;BME280;45815;52.334;5.024;2023-03-20T03:12:55;101896.84;;;7.52;100.00
58955;BME280;45815;52.334;5.024;2023-03-20T03:15:30;101892.59;;;7.54;100.00
58955;BME280;45815;52.334;5.024;2023-03-20T03:17:58;101894.09;;;7.49;100.00
58955;BME280;45815;52.334;5.024;2023-03-20T03:20:37;101888.41;;;7.40;100.00
58955;BME280;45815;52.334;5.024;2023-03-20T03:23:04;101882.28;;;7.39;100.00
58955;BME280;45815;52.334;5.024;2023-03-20T03:25:40;101878.72;;;7.37;100.00
58955;BME280;45815;52.334;5.024;2023-03-20T03:28:22;101873.19;;;7.31;100.00
58955;BME280;45815;52.334;5.024;2023-03-20T03:30:51;101870.50;;;7.30;100.00
58955;BME280;45815;52.334;5.024;2023-03-20T03:33:29;101866.69;;;7.23;100.00
58955;BME280;45815;52.334;5.024;2023-03-20T03:41:56;101851.19;;;7.26;100.00
58955;BME280;45815;52.334;5.024;2023-03-20T03:44:55;101853.72;;;7.25;100.00
58955;BME280;45815;52.334;5.024;2023-03-20T03:47:30;101856.75;;;7.16;100.00
58955;BME280;45815;52.334;5.024;2023-03-20T03:50:05;101845.44;;;7.15;100.00
58955;BME280;45815;52.334;5.024;2023-03-20T03:52:33;101840.63;;;7.07;100.00
58955;BME280;45815;52.334;5.024;2023-03-20T03:55:04;101854.16;;;7.16;100.00
58955;BME280;45815;52.334;5.024;2023-03-20T03:57:48;101848.69;;;7.11;100.00
58955;BME280;45815;52.334;5.024;2023-03-20T04:00:18;101829.91;;;7.01;100.00
58955;BME280;45815;52.334;5.024;2023-03-20T04:02:47;101841.78;;;7.12;100.00
58955;BME280;45815;52.334;5.024;2023-03-20T04:05:14;101839.00;;;7.09;100.00
58955;BME280;45815;52.334;5.024;2023-03-20T04:07:45;101854.38;;;7.03;100.00
58955;BME280;45815;52.334;5.024;2023-03-20T04:10:12;101850.28;;;7.08;100.00
58955;BME280;45815;52.334;5.024;2023-03-20T04:12:43;101857.13;;;7.06;100.00
58955;BME280;45815;52.334;5.024;2023-03-20T04:15:10;101855.50;;;7.08;100.00
58955;BME280;45815;52.334;5.024;2023-03-20T04:17:36;101856.47;;;7.10;100.00
58955;BME280;45815;52.334;5.024;2023-03-20T04:20:03;101843.25;;;7.07;100.00
58955;BME280;45815;52.334;5.024;2023-03-20T04:22:29;101840.19;;;6.97;100.00
58955;BME280;45815;52.334;5.024;2023-03-20T04:25:05;101855.50;;;7.08;100.00
58955;BME280;45815;52.334;5.024;2023-03-20T04:27:31;101853.88;;;7.10;100.00
58955;BME280;45815;52.334;5.024;2023-03-20T04:29:57;101842.72;;;7.14;100.00
58955;BME280;45815;52.334;5.024;2023-03-20T04:32:42;101849.63;;;7.12;100.00
58955;BME280;45815;52.334;5.024;2023-03-20T04:35:16;101849.75;;;7.15;100.00
58955;BME280;45815;52.334;5.024;2023-03-20T04:37:49;101853.16;;;7.14;100.00
58955;BME280;45815;52.334;5.024;2023-03-20T04:40:16;101853.47;;;7.20;100.00
58955;BME280;45815;52.334;5.024;2023-03-20T04:42:42;101841.31;;;7.21;100.00
58955;BME280;45815;52.334;5.024;2023-03-20T04:45:09;101846.72;;;7.24;100.00
58955;BME280;45815;52.334;5.024;2023-03-20T04:47:40;101845.03;;;7.26;100.00
58955;BME280;45815;52.334;5.024;2023-03-20T04:50:06;101828.13;;;7.17;100.00
58955;BME280;45815;52.334;5.024;2023-03-20T04:52:32;101834.69;;;7.27;100.00
58955;BME280;45815;52.334;5.024;2023-03-20T04:54:57;101821.63;;;7.27;100.00
58955;BME280;45815;52.334;5.024;2023-03-20T04:57:23;101822.28;;;7.23;100.00
58955;BME280;45815;52.334;5.024;2023-03-20T04:59:49;101823.25;;;7.25;100.00
58955;BME280;45815;52.334;5.024;2023-03-20T05:02:15;101830.97;;;7.22;100.00
58955;BME280;45815;52.334;5.024;2023-03-20T05:04:42;101834.47;;;7.23;100.00
58955;BME280;45815;52.334;5.024;2023-03-20T05:07:08;101823.88;;;7.19;100.00
58955;BME280;45815;52.334;5.024;2023-03-20T05:09:42;101821.34;;;7.21;100.00
58955;BME280;45815;52.334;5.024;2023-03-20T05:12:08;101812.75;;;7.24;100.00
58955;BME280;45815;52.334;5.024;2023-03-20T05:14:54;101815.59;;;7.28;100.00
58955;BME280;45815;52.334;5.024;2023-03-20T05:17:23;101788.28;;;7.22;100.00
58955;BME280;45815;52.334;5.024;2023-03-20T05:20:18;101813.00;;;7.28;100.00
58955;BME280;45815;52.334;5.024;2023-03-20T05:23:04;101810.22;;;7.25;100.00
58955;BME280;45815;52.334;5.024;2023-03-20T05:25:44;101818.22;;;7.28;100.00
58955;BME280;45815;52.334;5.024;2023-03-20T05:28:16;101826.97;;;7.30;100.00
58955;BME280;45815;52.334;5.024;2023-03-20T05:31:06;101827.06;;;7.32;100.00
58955;BME280;45815;52.334;5.024;2023-03-20T05:33:51;101827.97;;;7.32;100.00
58955;BME280;45815;52.334;5.024;2023-03-20T05:36:35;101827.16;;;7.33;100.00
58955;BME280;45815;52.334;5.024;2023-03-20T05:39:19;101830.00;;;7.38;100.00
58955;BME280;45815;52.334;5.024;2023-03-20T05:42:09;101817.50;;;7.32;100.00
58955;BME280;45815;52.334;5.024;2023-03-20T05:44:53;101824.22;;;7.27;100.00
58955;BME280;45815;52.334;5.024;2023-03-20T05:47:37;101827.06;;;7.32;100.00
58955;BME280;45815;52.334;5.024;2023-03-20T05:50:21;101822.91;;;7.35;100.00
58955;BME280;45815;52.334;5.024;2023-03-20T05:53:09;101813.13;;;7.31;100.00
58955;BME280;45815;52.334;5.024;2023-03-20T05:55:58;101826.41;;;7.36;100.00
58955;BME280;45815;52.334;5.024;2023-03-20T05:58:47;101822.16;;;7.38;100.00
58955;BME280;45815;52.334;5.024;2023-03-20T06:01:35;101830.78;;;7.37;100.00
58955;BME280;45815;52.334;5.024;2023-03-20T06:04:19;101825.44;;;7.34;100.00
58955;BME280;45815;52.334;5.024;2023-03-20T06:07:11;101837.00;;;7.39;100.00
58955;BME280;45815;52.334;5.024;2023-03-20T06:09:39;101833.63;;;7.42;100.00
58955;BME280;45815;52.334;5.024;2023-03-20T06:12:09;101837.22;;;7.44;100.00
58955;BME280;45815;52.334;5.024;2023-03-20T06:14:36;101839.72;;;7.42;100.00
58955;BME280;45815;52.334;5.024;2023-03-20T06:17:05;101840.66;;;7.43;100.00
58955;BME280;45815;52.334;5.024;2023-03-20T06:19:30;101847.00;;;7.48;100.00
58955;BME280;45815;52.334;5.024;2023-03-20T06:21:56;101842.56;;;7.47;100.00
58955;BME280;45815;52.334;5.024;2023-03-20T06:24:22;101838.09;;;7.44;100.00
58955;BME280;45815;52.334;5.024;2023-03-20T06:26:48;101844.50;;;7.51;100.00
58955;BME280;45815;52.334;5.024;2023-03-20T06:29:14;101845.56;;;7.54;100.00
58955;BME280;45815;52.334;5.024;2023-03-20T06:31:40;101843.84;;;7.55;100.00
58955;BME280;45815;52.334;5.024;2023-03-20T06:34:09;101848.09;;;7.53;100.00
58955;BME280;45815;52.334;5.024;2023-03-20T06:36:41;101836.00;;;7.55;100.00
58955;BME280;45815;52.334;5.024;2023-03-20T06:39:14;101836.41;;;7.45;100.00
58955;BME280;45815;52.334;5.024;2023-03-20T06:41:39;101843.63;;;7.50;100.00
58955;BME280;45815;52.334;5.024;2023-03-20T06:44:07;101844.50;;;7.51;100.00
58955;BME280;45815;52.334;5.024;2023-03-20T06:46:59;101837.66;;;7.53;100.00
58955;BME280;45815;52.334;5.024;2023-03-20T06:49:24;101838.53;;;7.53;100.00
58955;BME280;45815;52.334;5.024;2023-03-20T06:51:50;101841.22;;;7.55;100.00
58955;BME280;45815;52.334;5.024;2023-03-20T06:54:22;101842.16;;;7.37;100.00
58955;BME280;45815;52.334;5.024;2023-03-20T06:56:47;101832.19;;;7.48;100.00
58955;BME280;45815;52.334;5.024;2023-03-20T06:59:13;101836.69;;;7.51;100.00
58955;BME280;45815;52.334;5.024;2023-03-20T07:01:38;101844.50;;;7.51;100.00
58955;BME280;45815;52.334;5.024;2023-03-20T07:04:05;101842.19;;;7.57;100.00
58955;BME280;45815;52.334;5.024;2023-03-20T07:06:37;101845.63;;;7.56;100.00
58955;BME280;45815;52.334;5.024;2023-03-20T07:09:03;101861.50;;;7.60;100.00
58955;BME280;45815;52.334;5.024;2023-03-20T07:11:30;101851.22;;;7.64;100.00
58955;BME280;45815;52.334;5.024;2023-03-20T07:13:56;101873.16;;;7.67;100.00
58955;BME280;45815;52.334;5.024;2023-03-20T07:16:45;101858.22;;;7.65;100.00
58955;BME280;45815;52.334;5.024;2023-03-20T07:19:11;101865.31;;;7.67;100.00
58955;BME280;45815;52.334;5.024;2023-03-20T07:21:40;101855.53;;;7.63;100.00
58955;BME280;45815;52.334;5.024;2023-03-20T07:24:05;101864.66;;;7.71;100.00
58955;BME280;45815;52.334;5.024;2023-03-20T07:26:32;101864.50;;;7.68;100.00
58955;BME280;45815;52.334;5.024;2023-03-20T07:28:57;101861.94;;;7.70;100.00
58955;BME280;45815;52.334;5.024;2023-03-20T07:31:26;101860.25;;;7.70;100.00
58955;BME280;45815;52.334;5.024;2023-03-20T07:34:09;101867.66;;;7.61;100.00
58955;BME280;45815;52.334;5.024;2023-03-20T07:36:36;101873.78;;;7.61;100.00
58955;BME280;45815;52.334;5.024;2023-03-20T07:39:02;101866.97;;;7.65;100.00
58955;BME280;45815;52.334;5.024;2023-03-20T07:41:29;101857.66;;;7.70;100.00
58955;BME280;45815;52.334;5.024;2023-03-20T07:44:00;101851.78;;;7.76;100.00
58955;BME280;45815;52.334;5.024;2023-03-20T07:46:46;101865.22;;;7.83;100.00
58955;BME280;45815;52.334;5.024;2023-03-20T07:49:14;101863.56;;;7.86;100.00
58955;BME280;45815;52.334;5.024;2023-03-20T07:51:48;101865.38;;;7.87;100.00
58955;BME280;45815;52.334;5.024;2023-03-20T07:54:13;101867.03;;;7.85;100.00
58955;BME280;45815;52.334;5.024;2023-03-20T07:56:39;101856.69;;;7.88;100.00
58955;BME280;45815;52.334;5.024;2023-03-20T07:59:05;101863.34;;;7.81;100.00
58955;BME280;45815;52.334;5.024;2023-03-20T08:01:31;101864.25;;;7.81;100.00
58955;BME280;45815;52.334;5.024;2023-03-20T08:03:56;101859.09;;;7.83;100.00
58955;BME280;45815;52.334;5.024;2023-03-20T08:06:21;101850.06;;;7.76;100.00
58955;BME280;45815;52.334;5.024;2023-03-20T08:08:47;101870.53;;;7.85;100.00
58955;BME280;45815;52.334;5.024;2023-03-20T08:11:16;101858.47;;;7.89;100.00
58955;BME280;45815;52.334;5.024;2023-03-20T08:13:41;101867.38;;;7.92;100.00
58955;BME280;45815;52.334;5.024;2023-03-20T08:16:07;101863.88;;;7.92;100.00
58955;BME280;45815;52.334;5.024;2023-03-20T08:18:32;101867.59;;;7.97;100.00
58955;BME280;45815;52.334;5.024;2023-03-20T08:20:58;101862.34;;;7.97;100.00
58955;BME280;45815;52.334;5.024;2023-03-20T08:23:23;101869.44;;;7.99;100.00
58955;BME280;45815;52.334;5.024;2023-03-20T08:25:50;101849.06;;;7.92;100.00
58955;BME280;45815;52.334;5.024;2023-03-20T08:28:17;101868.75;;;8.03;100.00
58955;BME280;45815;52.334;5.024;2023-03-20T08:30:42;101870.84;;;8.11;100.00
58955;BME280;45815;52.334;5.024;2023-03-20T08:33:08;101866.28;;;8.07;100.00
58955;BME280;45815;52.334;5.024;2023-03-20T08:35:34;101874.47;;;8.14;100.00
58955;BME280;45815;52.334;5.024;2023-03-20T08:38:00;101870.38;;;8.19;100.00
58955;BME280;45815;52.334;5.024;2023-03-20T08:40:25;101875.44;;;8.16;100.00
58955;BME280;45815;52.334;5.024;2023-03-20T08:42:51;101872.81;;;8.16;100.00
58955;BME280;45815;52.334;5.024;2023-03-20T08:45:16;101876.06;;;8.11;100.00
58955;BME280;45815;52.334;5.024;2023-03-20T08:47:42;101870.06;;;8.13;100.00
58955;BME280;45815;52.334;5.024;2023-03-20T08:50:08;101871.94;;;8.16;100.00
58955;BME280;45815;52.334;5.024;2023-03-20T08:52:34;101871.72;;;8.11;100.00
58955;BME280;45815;52.334;5.024;2023-03-20T08:54:59;101874.63;;;8.17;100.00
58955;BME280;45815;52.334;5.024;2023-03-20T08:57:25;101876.59;;;8.23;100.00
58955;BME280;45815;52.334;5.024;2023-03-20T08:59:51;101873.91;;;8.21;100.00
58955;BME280;45815;52.334;5.024;2023-03-20T09:02:16;101863.94;;;8.13;100.00
58955;BME280;45815;52.334;5.024;2023-03-20T09:04:42;101872.75;;;8.15;100.00
58955;BME280;45815;52.334;5.024;2023-03-20T09:07:07;101874.25;;;8.10;100.00
58955;BME280;45815;52.334;5.024;2023-03-20T09:09:33;101864.50;;;8.06;100.00
58955;BME280;45815;52.334;5.024;2023-03-20T09:11:59;101864.72;;;8.10;100.00
58955;BME280;45815;52.334;5.024;2023-03-20T09:14:25;101863.78;;;8.10;100.00
58955;BME280;45815;52.334;5.024;2023-03-20T09:16:54;101866.63;;;8.14;100.00
58955;BME280;45815;52.334;5.024;2023-03-20T09:19:23;101859.75;;;8.16;100.00
58955;BME280;45815;52.334;5.024;2023-03-20T09:21:48;101867.19;;;8.27;100.00
58955;BME280;45815;52.334;5.024;2023-03-20T09:24:16;101865.69;;;8.32;100.00
58955;BME280;45815;52.334;5.024;2023-03-20T09:26:42;101859.69;;;8.34;100.00
58955;BME280;45815;52.334;5.024;2023-03-20T09:29:07;101864.16;;;8.37;100.00
58955;BME280;45815;52.334;5.024;2023-03-20T09:31:33;101859.16;;;8.41;100.00
58955;BME280;45815;52.334;5.024;2023-03-20T09:33:58;101858.41;;;8.44;100.00
58955;BME280;45815;52.334;5.024;2023-03-20T09:36:24;101864.03;;;8.53;100.00
58955;BME280;45815;52.334;5.024;2023-03-20T09:38:49;101857.97;;;8.54;100.00
58955;BME280;45815;52.334;5.024;2023-03-20T09:41:19;101854.53;;;8.55;100.00
58955;BME280;45815;52.334;5.024;2023-03-20T09:49:56;101861.13;;;8.66;100.00
58955;BME280;45815;52.334;5.024;2023-03-20T09:52:27;101864.75;;;8.70;100.00
58955;BME280;45815;52.334;5.024;2023-03-20T09:55:01;101866.69;;;8.74;100.00
58955;BME280;45815;52.334;5.024;2023-03-20T09:57:36;101871.03;;;8.74;100.00
58955;BME280;45815;52.334;5.024;2023-03-20T10:00:06;101868.41;;;8.74;100.00
58955;BME280;45815;52.334;5.024;2023-03-20T10:02:52;101869.22;;;8.73;100.00
58955;BME280;45815;52.334;5.024;2023-03-20T10:05:36;101868.34;;;8.72;100.00
58955;BME280;45815;52.334;5.024;2023-03-20T10:08:05;101865.66;;;8.71;100.00
58955;BME280;45815;52.334;5.024;2023-03-20T10:15:56;101863.41;;;8.59;100.00
58955;BME280;45815;52.334;5.024;2023-03-20T10:18:26;101849.53;;;8.61;100.00
58955;BME280;45815;52.334;5.024;2023-03-20T10:23:42;101859.75;;;8.55;100.00
58955;BME280;45815;52.334;5.024;2023-03-20T10:26:13;101856.19;;;8.53;100.00
58955;BME280;45815;52.334;5.024;2023-03-20T10:29:03;101855.41;;;8.56;100.00
58955;BME280;45815;52.334;5.024;2023-03-20T10:36:41;101860.25;;;8.47;100.00
58955;BME280;45815;52.334;5.024;2023-03-20T10:39:44;101850.66;;;8.47;100.00
58955;BME280;45815;52.334;5.024;2023-03-20T10:42:31;101832.09;;;8.41;100.00
58955;BME280;45815;52.334;5.024;2023-03-20T10:45:05;101847.50;;;8.54;100.00
58955;BME280;45815;52.334;5.024;2023-03-20T10:47:35;101850.81;;;8.50;100.00
58955;BME280;45815;52.334;5.024;2023-03-20T10:50:23;101850.09;;;8.54;100.00
58955;BME280;45815;52.334;5.024;2023-03-20T10:52:54;101851.16;;;8.58;100.00
58955;BME280;45815;52.334;5.024;2023-03-20T10:55:28;101848.06;;;8.47;100.00
58955;BME280;45815;52.334;5.024;2023-03-20T10:58:08;101849.69;;;8.45;100.00
58955;BME280;45815;52.334;5.024;2023-03-20T11:00:35;101834.16;;;8.48;100.00
58955;BME280;45815;52.334;5.024;2023-03-20T11:03:03;101841.56;;;8.58;100.00
58955;BME280;45815;52.334;5.024;2023-03-20T11:05:36;101839.78;;;8.57;100.00
58955;BME280;45815;52.334;5.024;2023-03-20T11:08:06;101846.13;;;8.62;100.00
58955;BME280;45815;52.334;5.024;2023-03-20T11:10:36;101837.31;;;8.60;100.00
58955;BME280;45815;52.334;5.024;2023-03-20T11:13:15;101840.75;;;8.59;100.00
58955;BME280;45815;52.334;5.024;2023-03-20T11:15:43;101828.38;;;8.55;100.00
58955;BME280;45815;52.334;5.024;2023-03-20T11:18:11;101833.09;;;8.64;100.00
58955;BME280;45815;52.334;5.024;2023-03-20T11:20:44;101840.88;;;8.62;100.00
58955;BME280;45815;52.334;5.024;2023-03-20T11:23:15;101846.41;;;8.69;100.00
58955;BME280;45815;52.334;5.024;2023-03-20T11:25:55;101843.56;;;8.64;100.00
58955;BME280;45815;52.334;5.024;2023-03-20T11:28:37;101842.66;;;8.63;100.00
58955;BME280;45815;52.334;5.024;2023-03-20T11:33:42;101838.34;;;8.64;100.00
58955;BME280;45815;52.334;5.024;2023-03-20T11:36:26;101840.97;;;8.64;100.00
58955;BME280;45815;52.334;5.024;2023-03-20T11:39:05;101837.41;;;8.63;100.00
58955;BME280;45815;52.334;5.024;2023-03-20T11:41:31;101838.53;;;8.69;100.00
58955;BME280;45815;52.334;5.024;2023-03-20T11:43:57;101841.41;;;8.75;100.00
58955;BME280;45815;52.334;5.024;2023-03-20T11:46:24;101818.53;;;8.71;100.00
58955;BME280;45815;52.334;5.024;2023-03-20T11:49:16;101828.69;;;8.84;100.00
58955;BME280;45815;52.334;5.024;2023-03-20T11:51:44;101837.63;;;8.89;100.00
58955;BME280;45815;52.334;5.024;2023-03-20T11:54:15;101829.00;;;8.92;100.00
58955;BME280;45815;52.334;5.024;2023-03-20T11:57:45;101835.78;;;8.86;100.00
58955;BME280;45815;52.334;5.024;2023-03-20T12:00:05;101824.44;;;8.86;100.00
58955;BME280;45815;52.334;5.024;2023-03-20T12:02:32;101829.78;;;8.89;100.00
58955;BME280;45815;52.334;5.024;2023-03-20T12:05:00;101832.09;;;8.81;100.00
58955;BME280;45815;52.334;5.024;2023-03-20T12:07:30;101822.88;;;8.91;100.00
58955;BME280;45815;52.334;5.024;2023-03-20T12:09:59;101819.69;;;8.98;100.00
58955;BME280;45815;52.334;5.024;2023-03-20T12:23:33;101814.22;;;9.13;100.00
58955;BME280;45815;52.334;5.024;2023-03-20T12:26:11;101815.72;;;9.08;100.00
58955;BME280;45815;52.334;5.024;2023-03-20T12:34:21;101811.03;;;8.99;100.00
58955;BME280;45815;52.334;5.024;2023-03-20T12:36:49;101815.59;;;9.05;100.00
58955;BME280;45815;52.334;5.024;2023-03-20T12:39:21;101809.38;;;9.01;100.00
58955;BME280;45815;52.334;5.024;2023-03-20T12:45:15;101807.81;;;9.06;100.00
58955;BME280;45815;52.334;5.024;2023-03-20T12:50:52;101798.91;;;9.24;100.00
58955;BME280;45815;52.334;5.024;2023-03-20T13:01:01;101795.03;;;9.14;100.00
58955;BME280;45815;52.334;5.024;2023-03-20T13:06:13;101789.53;;;9.08;100.00
58955;BME280;45815;52.334;5.024;2023-03-20T13:08:55;101793.66;;;9.01;100.00
58955;BME280;45815;52.334;5.024;2023-03-20T13:11:32;101769.94;;;8.98;100.00
58955;BME280;45815;52.334;5.024;2023-03-20T13:24:30;101778.75;;;9.00;100.00
58955;BME280;45815;52.334;5.024;2023-03-20T13:27:19;101779.78;;;9.04;100.00
58955;BME280;45815;52.334;5.024;2023-03-20T13:30:18;101775.63;;;9.09;100.00
58955;BME280;45815;52.334;5.024;2023-03-20T13:33:24;101771.38;;;9.13;100.00
58955;BME280;45815;52.334;5.024;2023-03-20T13:36:01;101774.94;;;9.15;100.00
58955;BME280;45815;52.334;5.024;2023-03-20T13:38:36;101766.09;;;9.11;100.00
58955;BME280;45815;52.334;5.024;2023-03-20T13:41:06;101765.31;;;9.14;100.00
58955;BME280;45815;52.334;5.024;2023-03-20T13:43:40;101764.47;;;9.15;100.00
58955;BME280;45815;52.334;5.024;2023-03-20T13:46:15;101756.63;;;9.15;100.00
58955;BME280;45815;52.334;5.024;2023-03-20T13:48:43;101765.56;;;9.20;100.00
58955;BME280;45815;52.334;5.024;2023-03-20T13:51:20;101764.63;;;9.18;100.00
58955;BME280;45815;52.334;5.024;2023-03-20T13:54:06;101766.13;;;9.13;100.00
58955;BME280;45815;52.334;5.024;2023-03-20T14:02:47;101766.22;;;9.14;100.00
58955;BME280;45815;52.334;5.024;2023-03-20T14:05:20;101769.09;;;9.20;100.00
58955;BME280;45815;52.334;5.024;2023-03-20T14:07:48;101768.13;;;9.18;100.00
58955;BME280;45815;52.334;5.024;2023-03-20T14:12:57;101761.94;;;9.16;100.00
58955;BME280;45815;52.334;5.024;2023-03-20T14:15:33;101767.09;;;9.15;100.00
58955;BME280;45815;52.334;5.024;2023-03-20T14:18:26;101756.75;;;9.18;100.00
58955;BME280;45815;52.334;5.024;2023-03-20T14:20:55;101746.16;;;9.15;100.00
58955;BME280;45815;52.334;5.024;2023-03-20T14:25:56;101757.25;;;9.30;100.00
58955;BME280;45815;52.334;5.024;2023-03-20T14:28:28;101765.91;;;9.29;100.00
58955;BME280;45815;52.334;5.024;2023-03-20T14:31:12;101764.22;;;9.29;100.00
58955;BME280;45815;52.334;5.024;2023-03-20T14:33:42;101759.78;;;9.28;100.00
58955;BME280;45815;52.334;5.024;2023-03-20T14:36:17;101760.63;;;9.27;100.00
58955;BME280;45815;52.334;5.024;2023-03-20T14:41:54;101754.38;;;9.24;100.00
58955;BME280;45815;52.334;5.024;2023-03-20T14:58:45;101744.78;;;9.24;100.00
58955;BME280;45815;52.334;5.024;2023-03-20T15:04:51;101745.81;;;9.28;100.00
58955;BME280;45815;52.334;5.024;2023-03-20T15:09:22;101732.94;;;9.34;100.00
58955;BME280;45815;52.334;5.024;2023-03-20T15:11:50;101736.50;;;9.36;100.00
58955;BME280;45815;52.334;5.024;2023-03-20T15:14:21;101738.19;;;9.34;100.00
58955;BME280;45815;52.334;5.024;2023-03-20T15:16:56;101728.34;;;9.28;100.00
58955;BME280;45815;52.334;5.024;2023-03-20T15:19:21;101730.53;;;9.40;100.00
58955;BME280;45815;52.334;5.024;2023-03-20T15:21:47;101734.00;;;9.39;100.00
58955;BME280;45815;52.334;5.024;2023-03-20T15:24:39;101734.66;;;9.34;100.00
58955;BME280;45815;52.334;5.024;2023-03-20T15:27:04;101740.91;;;9.37;100.00
58955;BME280;45815;52.334;5.024;2023-03-20T15:29:30;101741.13;;;9.43;100.00
58955;BME280;45815;52.334;5.024;2023-03-20T15:31:58;101743.03;;;9.47;100.00